• Join FlightAware (Why Join?)
  • Login
  • US Flag 
09:27AM EDT


 

Airport Tracker/Info


-or-


 

Live Flight TrackerFlight Track Log ✈ FLG3729 ✈ 25-Apr-2013 ✈ KALB - KDTW

Flight Track Log - Related Links

Times and Time Zones

All times are in EDT time to prevent confusion due to time zone crossing. See the FLG3729 flight status page for this flight to view local times or setup timezone preferences in your user account.

Time Position Orientation Groundspeed Altitude Reporting Facility
EDT Latitude Longitude Course Direction KTS MPH feet Rate Location/Type
05:54AM 42.7653 -73.8061 283° West 145 167 1,800  Level Boston Center
05:55AM 42.8092 -73.7986 North 191 220 3,800 2,580 Climbing Boston Center
05:56AM 42.8758 -73.7914 North 247 284 7,000 2,700 Climbing Boston Center
05:57AM 42.8045 -74.1311 281° West  Level FlightAware Approximate
05:57AM 42.9425 -73.8042 352° North 260 299 9,500  Level Boston Center
05:58AM 42.8209 -74.2458 281° West  Level FlightAware Approximate
05:58AM 43.0256 -73.8233 350° North 279 321 11,300  Level Boston Center
05:59AM 42.8379 -74.3604 283° West  Level FlightAware Approximate
05:59AM 43.1208 -73.8736 339° North 324 373 13,400  Level Boston Center
06:00AM 43.1361 -73.9794 281° West 294 338 15,300 2,340 Climbing Boston Center
06:01AM 43.1428 -74.1075 274° West 285 328 18,100 1,980 Climbing Boston Center
06:02AM 43.1431 -74.2242 270° West 311 358 19,300 1,080 Climbing Boston Center
06:03AM 43.1450 -74.3525 271° West 325 374 20,300 960 Climbing Boston Center
06:04AM 43.1469 -74.4892 271° West 342 394 21,300 960 Climbing Boston Center
06:05AM 43.1506 -74.6258 272° West 355 409 22,300 960 Climbing Boston Center
06:06AM 43.1519 -74.7625 271° West 362 417 23,300 960 Climbing Boston Center
06:07AM 43.1533 -74.9019 271° West 362 417 24,300 780 Climbing Boston Center
06:08AM 43.1564 -75.0417 272° West 362 417 25,100 660 Climbing Boston Center
06:10AM 43.1567 -75.2094 270° West 367 422 25,900 720 Climbing Boston Center
06:11AM 43.1586 -75.3778 271° West 367 422 26,700 600 Climbing Boston Center
06:12AM 43.1592 -75.5142 270° West 367 422 27,200 480 Climbing Boston Center
06:13AM 43.1597 -75.6539 270° West 367 422 27,700 360 Climbing Boston Center
06:14AM 43.1619 -75.7933 271° West 367 422 28,000 60 Climbing Boston Center
06:15AM 43.1617 -76.0031 270° West 363 418 28,000  Level Cleveland Center
06:16AM 43.1611 -76.1483 270° West 375 432 28,000  Level Cleveland Center
06:17AM 43.1539 -76.2942 266° West 380 437 28,000  Level Cleveland Center
06:18AM 43.1425 -76.4372 264° West 385 443 28,000  Level Cleveland Center
06:19AM 43.1289 -76.5833 263° West 392 451 28,000  Level Cleveland Center
06:20AM 43.1150 -76.7264 262° West 392 451 28,000  Level Cleveland Center
06:21AM 43.1011 -76.8753 263° West 392 451 28,000  Level Cleveland Center
06:22AM 43.0889 -77.0208 263° West 392 451 28,000  Level Cleveland Center
06:23AM 43.0750 -77.1753 263° West 392 451 28,000  Level Cleveland Center
06:24AM 43.0625 -77.3236 263° West 397 457 28,000  Level Cleveland Center
06:25AM 43.0458 -77.4753 261° West 402 463 28,000  Level Cleveland Center
06:26AM 43.0311 -77.6294 263° West 408 470 28,000  Level Cleveland Center
06:27AM 43.0161 -77.7806 262° West 408 470 28,000  Level Cleveland Center
06:28AM 43.0014 -77.9517 263° West 413 475 28,000  Level Cleveland Center
06:29AM 42.9858 -78.0997 262° West 408 470 28,000  Level Cleveland Center
06:30AM 42.9703 -78.2567 262° West 414 476 28,000  Level Cleveland Center
06:31AM 42.9544 -78.4075 262° West 409 471 28,000  Level Cleveland Center
06:32AM 42.9406 -78.5611 263° West 409 471 28,000  Level Cleveland Center
06:33AM 42.9225 -78.7147 261° West 409 471 28,000  Level Cleveland Center
06:34AM 42.8997 -78.8656 258° West 409 471 28,000  Level Cleveland Center
06:35AM 42.8789 -79.0192 260° West 409 471 28,000  Level Cleveland Center
06:36AM 42.8558 -79.1728 258° West 415 478 28,000  Level Cleveland Center
06:37AM 42.8328 -79.3233 258° West 409 471 28,000  Level Cleveland Center
06:38AM 42.8133 -79.4736 260° West 409 471 28,000  Level Cleveland Center
06:39AM 42.7897 -79.6214 258° West 409 471 28,000  Level Cleveland Center
06:40AM 42.7658 -79.7717 258° West 409 471 28,000  Level Cleveland Center
06:41AM 42.7500 -79.9244 262° West 409 471 28,000  Level Cleveland Center
06:42AM 42.7425 -80.0828 266° West 414 476 28,000  Level Cleveland Center
06:43AM 42.7369 -80.2356 267° West 414 476 28,000  Level Cleveland Center
06:44AM 42.7289 -80.3711 265° West 414 476 28,000 -180 Level Cleveland Center
06:45AM 42.7103 -80.5153 260° West 399 459 27,700 -960 Descending Cleveland Center
06:46AM 42.6872 -80.6511 257° West 379 436 26,100 -1,560 Descending Cleveland Center
06:47AM 42.6747 -80.7864 263° West 373 429 24,600 -1,500 Descending Cleveland Center
06:48AM 42.6619 -80.9108 262° West 360 414 23,100 -1,500 Descending Cleveland Center
06:49AM 42.6511 -81.0406 264° West 348 400 21,600 -1,500 Descending Cleveland Center
06:50AM 42.6400 -81.1647 263° West 348 400 20,100 -1,500 Descending Cleveland Center
06:51AM 42.6267 -81.3056 263° West 353 406 18,600 -1,200 Descending Cleveland Center
06:52AM 42.6156 -81.4322 263° West 348 400 17,700 -960 Descending Cleveland Center
06:53AM 42.6042 -81.5536 263° West 336 387 16,700 -1,020 Descending Cleveland Center
06:54AM 42.5947 -81.6719 264° West 329 379 15,700 -900 Descending Cleveland Center
06:55AM 42.5811 -81.7872 261° West 320 368 14,900 -660 Descending Cleveland Center
06:56AM 42.5714 -81.8942 263° West 320 368 14,400 -540 Descending Cleveland Center
06:57AM 42.5597 -82.0150 263° West 325 374 13,900 -540 Descending Cleveland Center
06:58AM 42.5497 -82.1306 263° West 325 374 13,400 -540 Descending Cleveland Center
06:59AM 42.5444 -82.2092 265° West 310 357 13,100 -540 Descending Cleveland Center
06:59AM 42.5378 -82.2486 257° West 319 367 12,900 -540 Descending Cleveland Center
07:00AM 42.5303 -82.3300 263° West 309 356 12,600 -540 Descending Cleveland Center
07:00AM 42.5256 -82.3636 259° West 314 361 12,400 -540 Descending Cleveland Center
07:01AM 42.5225 -82.4256 266° West 312 359 12,200 -420 Descending Cleveland Center
07:01AM 42.5156 -82.4761 259° West 314 361 12,000 -180 Descending Cleveland Center
07:02AM 42.5081 -82.5519 262° West 314 361 12,000  Level Cleveland Center
07:02AM 42.4928 -82.5908 242° Southwest 314 361 12,000 -900 Level Cleveland Center
07:03AM 42.4686 -82.6578 244° Southwest 302 348 11,100 -1,320 Descending Cleveland Center
07:03AM 42.4556 -82.6911 242° Southwest 309 356 10,700 -1,380 Descending Cleveland Center
07:04AM 42.4333 -82.7578 246° West 252 290 9,600 -1,440 Descending Cleveland Center
07:04AM 42.4267 -82.7772 245° Southwest 281 323 9,300 -1,560 Descending Cleveland Center
07:05AM 42.4233 -82.8447 266° West 255 293 8,200 -1,500 Descending Cleveland Center
07:05AM 42.4208 -82.8728 263° West 263 303 7,800 -1,200 Descending Cleveland Center
07:06AM 42.4214 -82.9375 271° West 246 283 7,000 -840 Descending Cleveland Center
07:06AM 42.4189 -82.9656 263° West 258 297 7,000 -240 Level Cleveland Center
07:07AM 42.4175 -83.0300 268° West 245 282 6,800 -600 Descending Cleveland Center
07:07AM 42.4147 -83.0553 262° West 253 291 6,400 -1,620 Descending Cleveland Center
07:08AM 42.4153 -83.1256 271° West 251 289 5,200 -1,380 Descending Cleveland Center
07:08AM 42.4039 -83.1650 249° West 237 273 4,900 -960 Descending FAA TRACON SMA TRACON (SMA)
07:09AM 42.3956 -83.1933 248° West 217 250 4,400 -1,200 Descending FAA TRACON SMA TRACON (SMA)
07:09AM 42.3836 -83.2131 231° Southwest 189 217 4,100 -780 Descending FAA TRACON SMA TRACON (SMA)
07:09AM 42.3706 -83.2236 211° Southwest 180 207 3,900 -960 Descending FAA TRACON SMA TRACON (SMA)
07:10AM 42.3575 -83.2328 207° Southwest 177 204 3,500 -1,140 Descending FAA TRACON SMA TRACON (SMA)
07:10AM 42.3422 -83.2433 207° Southwest 166 191 3,200 -780 Descending FAA TRACON SMA TRACON (SMA)
07:10AM 42.3281 -83.2536 208° Southwest 157 181 3,000 -480 Descending FAA TRACON SMA TRACON (SMA)
07:11AM 42.3175 -83.2619 210° Southwest 154 177 2,900 -600 Descending FAA TRACON SMA TRACON (SMA)
07:11AM 42.3036 -83.2722 209° Southwest 158 182 2,600 -780 Descending FAA TRACON SMA TRACON (SMA)
07:11AM 42.2919 -83.2808 209° Southwest 160 184 2,400 -780 Descending FAA TRACON SMA TRACON (SMA)
07:12AM 42.2794 -83.2900 208° Southwest 134 154 2,100 -900 Descending FAA TRACON SMA TRACON (SMA)
07:12AM 42.2689 -83.2978 209° Southwest 111 128 1,800 -600 Descending FAA TRACON SMA TRACON (SMA)
07:12AM 42.2608 -83.3039 209° Southwest 107 123 1,700 -300 Descending FAA TRACON SMA TRACON (SMA)